Time;durP1;ratioP1;P1;durP2;ratioP2;P2;SDS_P1;SDS_P2;PMS_P1;PMS_P2;Temp;Humidity;BMP_temperature;BMP_pressure;BME280_temperature;BME280_humidity;BME280_pressure;Samples;Min_cycle;Max_cycle;Signal;HPM_P1;HPM_P2
2022/09/11 11:33:43;;;;;;;4.72;4.22;;;;;;;19.86;69.60;99281.47;5140769;27;20172;-80
2022/09/11 11:36:15;;;;;;;5.85;3.90;;;;;;;20.21;71.66;99272.25;5116239;27;20083;-80
2022/09/11 11:38:46;;;;;;;5.82;4.72;;;;;;;20.58;69.46;99268.25;5121417;27;20047;-78
2022/09/11 11:41:19;;;;;;;5.95;4.30;;;;;;;20.61;66.07;99273.25;5129621;27;20100;-78
2022/09/11 11:43:48;;;;;;;4.32;3.85;;;;;;;20.89;65.92;99272.41;5122665;27;20051;-78
2022/09/11 11:46:20;;;;;;;4.55;3.85;;;;;;;20.97;63.66;99276.69;5120316;27;20047;-78
2022/09/11 11:48:54;;;;;;;4.93;3.20;;;;;;;21.17;62.05;99278.97;5115848;27;20043;-79
2022/09/11 11:51:27;;;;;;;3.65;3.33;;;;;;;21.27;61.77;99279.13;5118706;27;20536;-78
2022/09/11 11:54:00;;;;;;;6.63;3.60;;;;;;;21.32;61.63;99281.16;5118941;27;21242;-78
2022/09/11 11:56:34;;;;;;;5.85;3.58;;;;;;;21.58;59.86;99274.09;5120031;27;20417;-78
2022/09/11 11:59:06;;;;;;;3.55;3.05;;;;;;;21.70;58.43;99283.09;5123563;27;20047;-78
2022/09/11 12:01:39;;;;;;;6.40;3.40;;;;;;;21.69;57.15;99283.34;5125950;28;20055;-79
2022/09/11 12:04:16;;;;;;;4.45;3.00;;;;;;;22.02;57.28;99295.44;5122577;28;20104;-77
2022/09/11 12:06:42;;;;;;;3.95;3.53;;;;;;;22.00;57.44;99281.84;5114583;28;20122;-78
2022/09/11 12:09:09;;;;;;;5.25;3.03;;;;;;;22.16;55.30;99282.03;5117055;27;20047;-78
2022/09/11 12:11:38;;;;;;;4.97;3.10;;;;;;;22.10;54.66;99287.50;5118790;27;20154;-79
2022/09/11 12:14:06;;;;;;;3.50;3.20;;;;;;;22.25;54.33;99286.00;5118148;27;20108;-80
2022/09/11 12:16:35;;;;;;;4.22;3.00;;;;;;;22.54;53.29;99281.13;5119026;27;20138;-79
2022/09/11 12:19:06;;;;;;;3.63;3.00;;;;;;;22.43;53.63;99282.09;5117662;27;20059;-79
2022/09/11 12:21:39;;;;;;;5.35;3.15;;;;;;;22.24;53.66;99285.19;5119465;27;21336;-79
2022/09/11 12:24:41;;;;;;;3.92;3.20;;;;;;;21.79;55.51;99286.28;5120118;27;20539;-79
2022/09/11 12:27:48;;;;;;;7.22;3.15;;;;;;;21.60;55.49;99290.44;5115043;27;20048;-79
2022/09/11 12:30:21;;;;;;;2.97;2.67;;;;;;;21.17;57.52;99290.03;5109114;27;20225;-79
2022/09/11 12:32:50;;;;;;;3.58;3.00;;;;;;;21.02;59.73;99285.09;5120885;27;20039;-79
2022/09/11 12:35:44;;;;;;;4.45;3.50;;;;;;;20.81;63.98;99284.72;5118748;27;20055;-78
2022/09/11 12:38:20;;;;;;;4.45;3.28;;;;;;;20.66;68.15;99290.81;5099484;27;20318;-79
2022/09/11 12:40:53;;;;;;;5.80;3.90;;;;;;;20.56;69.08;99284.22;5117655;27;20054;-79
2022/09/11 12:43:30;;;;;;;4.57;3.78;;;;;;;20.23;71.53;99288.56;5110033;27;20101;-79
2022/09/11 12:45:57;;;;;;;8.90;4.65;;;;;;;20.13;73.24;99295.56;5107378;27;20044;-79
2022/09/11 12:48:32;;;;;;;7.03;4.43;;;;;;;19.89;72.09;99292.03;5109632;28;20035;-78
2022/09/11 12:50:59;;;;;;;8.60;3.75;;;;;;;19.91;72.53;99298.13;5111358;28;20387;-79
2022/09/11 12:53:31;;;;;;;5.13;4.25;;;;;;;20.33;70.14;99286.00;5110205;28;20450;-79
2022/09/11 12:56:00;;;;;;;5.35;4.10;;;;;;;20.82;69.64;99286.41;5093831;28;20051;-79
2022/09/11 12:58:35;;;;;;;4.32;3.70;;;;;;;20.95;65.33;99284.41;5107578;28;20104;-79
2022/09/11 13:01:07;;;;;;;8.77;4.15;;;;;;;21.06;65.18;99266.88;5102043;28;20410;-80
2022/09/11 13:03:35;;;;;;;6.50;3.60;;;;;;;21.30;63.40;99275.00;5101478;28;20056;-80
2022/09/11 13:06:05;;;;;;;5.68;3.97;;;;;;;21.59;62.74;99267.47;5090322;28;20048;-79
2022/09/11 13:08:38;;;;;;;5.25;3.40;;;;;;;21.38;62.92;99269.06;5090332;28;20483;-79
2022/09/11 13:11:36;;;;;;;7.93;3.42;;;;;;;21.38;61.36;99274.59;5106058;28;20505;-80
2022/09/11 13:14:05;;;;;;;4.80;3.05;;;;;;;21.54;62.27;99267.38;5099723;27;20043;-80
2022/09/11 13:16:34;;;;;;;8.88;4.63;;;;;;;21.81;60.71;99274.94;5105151;27;20355;-80
2022/09/11 13:19:10;;;;;;;3.92;3.53;;;;;;;21.66;60.09;99272.81;5105646;27;20132;-80
2022/09/11 13:21:39;;;;;;;5.45;3.42;;;;;;;21.56;61.30;99262.44;5104134;27;20477;-80
2022/09/11 13:24:24;;;;;;;3.63;3.00;;;;;;;21.59;58.23;99261.09;5111540;27;20428;-80
2022/09/11 13:26:59;;;;;;;3.25;2.60;;;;;;;21.42;56.71;99253.63;5102702;27;20039;-80
2022/09/11 13:29:28;;;;;;;4.55;3.00;;;;;;;21.66;55.21;99262.56;5102870;27;20083;-80
2022/09/11 13:31:57;;;;;;;3.50;2.78;;;;;;;21.50;54.64;99264.31;5107972;28;20487;-80
2022/09/11 13:34:27;;;;;;;4.57;2.45;;;;;;;21.48;55.63;99255.41;5103781;27;20051;-84
2022/09/11 13:36:55;;;;;;;3.35;2.60;;;;;;;21.72;57.11;99261.56;5101953;27;20042;-80
2022/09/11 13:39:25;;;;;;;3.33;2.63;;;;;;;21.97;55.04;99256.63;5104910;27;20051;-79
2022/09/11 13:42:01;;;;;;;4.07;2.92;;;;;;;21.84;53.85;99253.13;5104273;27;21149;-78
2022/09/11 13:44:38;;;;;;;4.07;2.83;;;;;;;22.31;53.38;99257.34;5101906;27;20491;-79
2022/09/11 13:47:06;;;;;;;4.25;2.83;;;;;;;22.48;52.54;99243.38;5104252;27;20055;-79
2022/09/11 13:49:36;;;;;;;3.67;2.63;;;;;;;22.79;52.26;99244.53;5103938;27;20122;-79
2022/09/11 13:52:05;;;;;;;3.10;2.80;;;;;;;22.89;50.96;99245.69;5104223;27;20600;-79
2022/09/11 13:54:37;;;;;;;4.07;2.50;;;;;;;22.95;49.86;99245.47;5102829;27;20044;-79
2022/09/11 13:57:16;;;;;;;2.65;2.35;;;;;;;22.92;49.17;99236.84;5103654;27;20104;-78
2022/09/11 13:59:52;;;;;;;2.20;2.00;;;;;;;22.73;50.47;99237.25;5103096;27;20047;-79
2022/09/11 14:02:37;;;;;;;3.42;2.28;;;;;;;22.19;52.01;99243.59;5101681;27;20044;-78
2022/09/11 14:05:13;;;;;;;3.03;2.60;;;;;;;22.35;51.68;99239.09;5100410;27;20043;-79
2022/09/11 14:07:48;;;;;;;5.40;3.03;;;;;;;22.09;52.49;99229.63;5103999;28;20471;-79
2022/09/11 14:10:20;;;;;;;4.70;2.60;;;;;;;22.00;52.14;99228.44;5104300;27;20052;-79
2022/09/11 14:12:53;;;;;;;2.67;2.28;;;;;;;21.83;53.39;99225.72;5100824;27;20512;-79
2022/09/11 14:15:35;;;;;;;3.25;2.38;;;;;;;22.04;52.92;99230.41;5100435;28;20044;-79
2022/09/11 14:18:03;;;;;;;6.53;2.72;;;;;;;22.10;51.98;99228.56;5083382;28;20460;-79
2022/09/11 14:20:31;;;;;;;3.17;2.40;;;;;;;22.59;51.94;99225.75;5103487;27;21167;-79
2022/09/11 14:23:03;;;;;;;3.42;2.63;;;;;;;22.56;52.04;99220.75;5102945;27;20050;-79
2022/09/11 14:25:32;;;;;;;3.85;2.70;;;;;;;22.18;52.23;99214.22;5103921;27;20039;-79
2022/09/11 14:27:59;;;;;;;4.82;2.97;;;;;;;21.94;54.07;99219.22;5103104;27;20044;-79
2022/09/11 14:30:36;;;;;;;2.85;2.38;;;;;;;21.87;54.37;99213.03;5103413;27;20059;-79
2022/09/11 14:33:24;;;;;;;4.38;2.97;;;;;;;21.66;55.05;99207.25;5101151;27;20166;-79
2022/09/11 14:35:53;;;;;;;4.22;2.70;;;;;;;21.24;55.50;99198.63;5090426;27;20063;-79
2022/09/11 14:38:23;;;;;;;5.67;2.93;;;;;;;21.22;56.41;99218.22;5103598;27;20051;-79
2022/09/11 14:40:57;;;;;;;4.40;2.70;;;;;;;21.07;57.36;99213.31;5103485;28;20448;-79
2022/09/11 14:43:30;;;;;;;4.75;2.95;;;;;;;21.01;57.45;99212.38;5099699;27;20042;-79
2022/09/11 14:45:57;;;;;;;4.45;3.00;;;;;;;20.92;56.66;99207.53;5103014;27;20402;-79
2022/09/11 14:48:25;;;;;;;3.60;3.00;;;;;;;20.86;57.64;99198.31;5103562;27;20059;-79
2022/09/11 14:50:51;;;;;;;3.13;2.67;;;;;;;20.88;56.63;99201.69;5098436;27;20043;-79
2022/09/11 14:53:25;;;;;;;3.97;2.33;;;;;;;20.76;56.32;99210.06;5102802;27;20674;-78
2022/09/11 14:55:52;;;;;;;4.07;2.60;;;;;;;20.69;56.25;99201.09;5102235;27;20452;-79
2022/09/11 14:58:20;;;;;;;3.53;2.47;;;;;;;20.66;56.19;99194.13;5101795;27;20066;-79
2022/09/11 15:00:47;;;;;;;2.70;2.50;;;;;;;20.67;57.28;99198.59;5103405;27;20051;-79
2022/09/11 15:03:13;;;;;;;2.63;2.40;;;;;;;20.43;57.88;99199.75;5101945;27;20035;-79
2022/09/11 15:05:42;;;;;;;2.88;2.45;;;;;;;20.35;59.06;99195.50;5102095;28;20043;-79
2022/09/11 15:08:09;;;;;;;3.58;2.67;;;;;;;20.29;59.83;99194.59;5101207;27;20111;-79
2022/09/11 15:10:36;;;;;;;3.72;2.53;;;;;;;20.48;58.87;99194.34;5102707;28;20418;-79
2022/09/11 15:13:03;;;;;;;2.85;2.40;;;;;;;20.47;59.05;99187.16;5101651;28;20210;-79
2022/09/11 15:15:33;;;;;;;3.35;2.15;;;;;;;20.55;58.83;99188.66;5102657;28;20055;-79
2022/09/11 15:18:00;;;;;;;4.85;2.70;;;;;;;20.64;57.78;99176.09;5105019;28;20055;-79
2022/09/11 15:20:27;;;;;;;4.25;3.17;;;;;;;20.68;56.57;99180.06;5107059;28;20079;-79
2022/09/11 15:22:55;;;;;;;4.63;2.92;;;;;;;20.47;58.27;99176.97;5097532;27;20043;-79
2022/09/11 15:25:22;;;;;;;7.55;2.60;;;;;;;20.41;59.12;99190.91;5100436;28;20044;-79
2022/09/11 15:27:51;;;;;;;4.03;2.35;;;;;;;20.29;59.38;99177.16;5104051;28;20047;-79
2022/09/11 15:30:18;;;;;;;5.45;2.55;;;;;;;20.37;58.53;99190.56;5110070;28;20608;-79
2022/09/11 15:32:46;;;;;;;5.57;2.78;;;;;;;20.32;59.07;99187.72;5109478;28;20130;-79
2022/09/11 15:35:13;;;;;;;5.85;2.88;;;;;;;20.24;59.32;99190.88;5091279;28;20062;-79
2022/09/11 15:37:40;;;;;;;3.65;2.67;;;;;;;20.08;60.10;99181.47;5108893;28;20137;-80
2022/09/11 15:40:08;;;;;;;5.82;2.63;;;;;;;20.16;60.65;99186.59;5101510;28;20070;-82
2022/09/11 15:42:35;;;;;;;3.05;2.75;;;;;;;20.01;61.02;99187.16;5094503;28;20043;-80
2022/09/11 15:45:01;;;;;;;4.40;2.95;;;;;;;20.00;61.90;99179.94;5107838;28;20366;-80
2022/09/11 15:47:30;;;;;;;4.05;2.90;;;;;;;20.02;61.48;99172.25;5101495;28;20058;-80
2022/09/11 15:49:58;;;;;;;4.25;3.22;;;;;;;20.09;62.37;99172.13;5099294;28;20056;-80
2022/09/11 15:52:28;;;;;;;4.25;3.60;;;;;;;20.06;61.96;99170.69;5090551;28;20055;-80
2022/09/11 15:54:55;;;;;;;4.30;3.10;;;;;;;20.03;62.76;99175.88;5097324;28;20412;-80
2022/09/11 15:57:22;;;;;;;5.65;3.42;;;;;;;19.92;63.49;99166.56;5107115;28;20055;-80
2022/09/11 15:59:50;;;;;;;4.15;2.80;;;;;;;20.00;63.84;99171.66;5106399;28;20368;-80
2022/09/11 16:02:19;;;;;;;5.13;2.95;;;;;;;20.05;63.47;99176.44;5106386;28;20108;-80
2022/09/11 16:04:46;;;;;;;4.20;3.05;;;;;;;20.00;64.47;99170.84;5108296;28;20043;-80
2022/09/11 16:07:14;;;;;;;6.03;3.53;;;;;;;20.00;65.18;99174.44;5089857;28;20055;-80
2022/09/11 16:09:43;;;;;;;5.90;2.95;;;;;;;19.94;65.95;99172.66;5105218;28;20055;-80
2022/09/11 16:12:10;;;;;;;7.82;3.40;;;;;;;19.88;67.20;99160.69;5105911;28;20055;-80
2022/09/11 16:14:37;;;;;;;4.78;3.53;;;;;;;19.72;67.92;99172.47;5100431;28;20036;-80
2022/09/11 16:17:06;;;;;;;4.57;3.65;;;;;;;19.70;67.00;99177.38;5095928;28;20105;-80
2022/09/11 16:19:33;;;;;;;4.85;3.38;;;;;;;19.47;68.64;99168.09;5104884;27;20048;-80
2022/09/11 16:22:01;;;;;;;7.15;3.80;;;;;;;19.41;69.35;99174.59;5109949;28;20113;-80
2022/09/11 16:24:36;;;;;;;6.95;3.00;;;;;;;19.48;68.56;99167.03;5109839;27;20502;-80
2022/09/11 16:27:04;;;;;;;4.18;3.20;;;;;;;19.47;69.79;99172.78;5108576;27;20152;-80
2022/09/11 16:29:33;;;;;;;4.55;3.22;;;;;;;19.41;71.18;99169.91;5109233;28;20050;-80
2022/09/11 16:32:00;;;;;;;5.82;3.60;;;;;;;19.38;71.62;99167.63;5098492;28;20074;-81
2022/09/11 16:34:28;;;;;;;8.23;4.13;;;;;;;19.30;72.11;99170.78;5108838;28;20044;-80
2022/09/11 16:36:54;;;;;;;4.18;3.42;;;;;;;19.34;71.89;99174.69;5110031;27;20461;-80
2022/09/11 16:39:21;;;;;;;8.55;3.45;;;;;;;19.28;71.04;99175.66;5098314;28;20048;-80
2022/09/11 16:41:49;;;;;;;5.95;3.72;;;;;;;19.13;72.12;99167.91;5110197;28;20051;-80
2022/09/11 16:44:16;;;;;;;4.53;3.63;;;;;;;19.25;72.41;99171.50;5098482;28;20055;-81
2022/09/11 16:46:43;;;;;;;4.07;3.45;;;;;;;19.18;73.35;99167.16;5107131;28;20047;-80
2022/09/11 16:49:16;;;;;;;4.57;3.30;;;;;;;19.13;74.33;99175.34;5106595;27;20044;-80
2022/09/11 16:51:43;;;;;;;6.65;3.47;;;;;;;19.02;75.60;99163.25;5105121;27;20048;-80
2022/09/11 16:54:10;;;;;;;4.10;3.65;;;;;;;18.99;75.68;99166.47;5103800;27;20134;-80
2022/09/11 16:56:38;;;;;;;5.05;3.40;;;;;;;18.98;75.83;99168.38;5107048;27;20089;-80
2022/09/11 16:59:06;;;;;;;5.22;3.75;;;;;;;18.84;77.21;99164.19;5099821;28;20047;-80
2022/09/11 17:01:33;;;;;;;5.40;3.72;;;;;;;18.77;82.20;99166.19;5109525;27;20051;-80
2022/09/11 17:03:59;;;;;;;5.00;4.10;;;;;;;18.75;82.75;99174.69;5107711;27;20718;-79
2022/09/11 17:06:28;;;;;;;4.10;3.70;;;;;;;18.56;83.63;99160.19;5102743;27;20047;-80
2022/09/11 17:08:57;;;;;;;5.03;3.30;;;;;;;18.53;83.63;99167.03;5108733;27;20407;-79
2022/09/11 17:11:25;;;;;;;6.17;3.60;;;;;;;18.42;84.32;99176.09;5092124;28;20062;-80
2022/09/11 17:13:53;;;;;;;6.72;3.45;;;;;;;18.38;83.74;99156.47;5101865;28;20048;-79
2022/09/11 17:16:24;;;;;;;7.13;3.70;;;;;;;18.42;83.71;99162.31;5098288;27;20039;-80
2022/09/11 17:18:53;;;;;;;5.45;3.85;;;;;;;18.42;84.14;99151.31;5105944;27;20055;-80
2022/09/11 17:21:21;;;;;;;5.38;3.58;;;;;;;18.52;85.72;99156.25;5097914;27;20486;-79
2022/09/11 17:23:48;;;;;;;4.85;3.70;;;;;;;18.37;85.97;99162.22;5098149;28;20082;-79
2022/09/11 17:26:16;;;;;;;5.55;3.92;;;;;;;18.35;86.41;99153.31;5104786;27;20376;-79
2022/09/11 17:28:46;;;;;;;4.95;4.03;;;;;;;18.18;86.41;99158.69;5104746;28;20094;-79
2022/09/11 17:31:13;;;;;;;5.15;3.95;;;;;;;18.00;89.05;99157.66;5108391;28;20097;-79
2022/09/11 17:33:41;;;;;;;4.15;3.53;;;;;;;17.86;90.36;99159.72;5106829;28;20054;-79
2022/09/11 17:36:10;;;;;;;4.97;4.10;;;;;;;17.78;92.32;99161.94;5109348;28;20047;-79
2022/09/11 17:38:38;;;;;;;4.82;4.00;;;;;;;17.61;94.01;99159.00;5105738;27;20139;-79
2022/09/11 17:41:07;;;;;;;4.32;3.50;;;;;;;17.46;96.02;99163.00;5104976;27;20104;-79
2022/09/11 17:43:35;;;;;;;4.50;3.75;;;;;;;17.31;96.57;99160.66;5102896;27;20602;-79
2022/09/11 17:46:02;;;;;;;4.22;3.53;;;;;;;17.25;97.18;99149.72;5101803;28;20048;-79
2022/09/11 17:48:30;;;;;;;6.90;4.13;;;;;;;17.13;96.42;99160.63;5105562;27;20054;-79
2022/09/11 17:51:05;;;;;;;4.03;3.63;;;;;;;17.06;96.96;99166.19;5097557;28;20131;-80
2022/09/11 17:53:36;;;;;;;5.75;4.03;;;;;;;16.98;96.40;99169.22;5104994;28;20044;-79
2022/09/11 17:56:05;;;;;;;5.35;3.88;;;;;;;16.80;98.28;99164.50;5110350;28;20047;-79
2022/09/11 17:58:31;;;;;;;8.70;4.25;;;;;;;16.66;98.97;99169.28;5108532;28;20040;-79
2022/09/11 18:00:59;;;;;;;10.85;4.00;;;;;;;16.57;99.28;99174.22;5105642;28;20059;-78
2022/09/11 18:03:27;;;;;;;5.75;3.97;;;;;;;16.44;98.94;99166.13;5094838;28;20093;-80
2022/09/11 18:05:55;;;;;;;6.13;4.32;;;;;;;16.41;98.38;99167.38;5108671;28;20047;-79
2022/09/11 18:08:23;;;;;;;4.45;3.88;;;;;;;16.45;98.32;99168.63;5101959;28;20475;-79
2022/09/11 18:10:51;;;;;;;8.55;4.10;;;;;;;16.38;98.76;99176.06;5095464;28;20219;-79
2022/09/11 18:13:20;;;;;;;7.50;4.10;;;;;;;16.39;98.98;99174.16;5098795;28;20504;-79
2022/09/11 18:15:48;;;;;;;5.78;4.25;;;;;;;16.38;100.00;99176.06;5108034;27;20055;-79
2022/09/11 18:18:14;;;;;;;6.20;4.28;;;;;;;16.33;100.00;99183.28;5106130;28;20134;-79
2022/09/11 18:20:42;;;;;;;4.88;4.20;;;;;;;16.31;100.00;99177.19;5106550;28;20048;-79
2022/09/11 18:23:08;;;;;;;4.70;4.20;;;;;;;16.20;100.00;99187.78;5104498;27;20051;-79
2022/09/11 18:25:38;;;;;;;7.20;4.40;;;;;;;16.02;100.00;99185.78;5104148;27;20060;-79
2022/09/11 18:28:08;;;;;;;10.43;4.72;;;;;;;15.89;100.00;99183.97;5101868;27;20044;-79
2022/09/11 18:30:40;;;;;;;4.80;4.28;;;;;;;15.83;100.00;99186.75;5102536;28;20134;-79
2022/09/11 18:33:08;;;;;;;5.13;3.88;;;;;;;15.85;100.00;99192.84;5103018;27;20051;-80
2022/09/11 18:35:35;;;;;;;5.30;3.97;;;;;;;15.88;100.00;99189.66;5102196;28;20108;-80
2022/09/11 18:38:02;;;;;;;7.18;4.18;;;;;;;15.79;100.00;99182.75;5104726;28;20073;-79
2022/09/11 18:40:28;;;;;;;6.53;4.38;;;;;;;15.58;100.00;99185.56;5105146;28;20433;-79
2022/09/11 18:42:57;;;;;;;5.15;4.28;;;;;;;15.66;100.00;99189.13;5100017;27;20043;-79
2022/09/11 18:45:24;;;;;;;4.72;4.22;;;;;;;15.61;100.00;99191.66;5101330;27;20051;-80
2022/09/11 18:47:51;;;;;;;6.97;4.22;;;;;;;15.51;100.00;99195.69;5102138;27;20039;-79
2022/09/11 18:50:19;;;;;;;4.60;4.03;;;;;;;15.34;100.00;99187.13;5107975;27;20048;-79
2022/09/11 18:52:45;;;;;;;13.50;6.10;;;;;;;15.33;100.00;99187.34;5104738;28;20063;-79
2022/09/11 18:55:12;;;;;;;12.52;7.40;;;;;;;15.27;100.00;99199.16;5098921;28;20039;-79
2022/09/11 18:57:39;;;;;;;5.07;4.32;;;;;;;15.20;100.00;99191.81;5104936;28;20054;-79
2022/09/11 19:00:12;;;;;;;6.15;4.43;;;;;;;15.12;100.00;99202.97;5104309;28;20048;-79
2022/09/11 19:02:39;;;;;;;9.05;6.05;;;;;;;15.13;100.00;99203.81;5098131;28;20048;-79
2022/09/11 19:05:06;;;;;;;9.70;5.55;;;;;;;14.91;100.00;99195.00;5099316;28;20065;-79
2022/09/11 19:07:33;;;;;;;10.40;5.70;;;;;;;14.97;100.00;99197.72;5105888;28;20500;-79
2022/09/11 19:10:00;;;;;;;6.70;4.82;;;;;;;14.98;100.00;99195.81;5105094;28;20147;-79
2022/09/11 19:12:26;;;;;;;9.38;4.97;;;;;;;14.94;100.00;99197.31;5097781;27;20087;-79
2022/09/11 19:14:54;;;;;;;9.30;4.68;;;;;;;14.87;100.00;99191.84;5103752;28;20556;-79
2022/09/11 19:17:22;;;;;;;6.95;4.82;;;;;;;14.81;100.00;99195.44;5104526;28;20111;-79
2022/09/11 19:19:50;;;;;;;7.63;4.47;;;;;;;14.84;100.00;99195.00;5099647;27;20337;-79
2022/09/11 19:22:21;;;;;;;7.35;4.60;;;;;;;14.79;100.00;99194.81;5105718;28;20048;-79
2022/09/11 19:24:48;;;;;;;5.68;4.75;;;;;;;14.65;100.00;99203.03;5105752;28;20040;-79
2022/09/11 19:27:15;;;;;;;6.65;4.35;;;;;;;14.63;100.00;99196.94;5092372;28;20056;-79
2022/09/11 19:29:41;;;;;;;5.43;4.28;;;;;;;14.61;100.00;99193.53;5097002;28;20052;-79
2022/09/11 19:32:08;;;;;;;5.40;4.82;;;;;;;14.55;100.00;99205.28;5094599;28;20060;-79
2022/09/11 19:34:40;;;;;;;7.78;4.85;;;;;;;14.33;100.00;99207.38;5107169;28;20043;-79
2022/09/11 19:37:08;;;;;;;8.25;4.63;;;;;;;14.36;100.00;99214.31;5105410;28;20047;-79
2022/09/11 19:39:35;;;;;;;7.95;4.93;;;;;;;14.36;100.00;99201.47;5099722;28;20392;-79
2022/09/11 19:42:01;;;;;;;7.47;4.55;;;;;;;14.41;100.00;99214.56;5098102;28;20044;-79
2022/09/11 19:44:33;;;;;;;7.05;4.63;;;;;;;14.28;100.00;99215.38;5101252;28;20044;-79
2022/09/11 19:47:01;;;;;;;11.20;5.25;;;;;;;14.20;100.00;99208.22;5100788;28;20047;-80
2022/09/11 19:49:28;;;;;;;13.77;5.25;;;;;;;13.95;100.00;99206.03;5107803;28;20097;-79
2022/09/11 19:51:57;;;;;;;7.00;4.60;;;;;;;13.96;100.00;99209.63;5109376;28;20051;-80
2022/09/11 19:54:24;;;;;;;12.43;5.65;;;;;;;13.97;100.00;99211.28;5109574;28;20438;-79
2022/09/11 19:56:50;;;;;;;8.38;5.18;;;;;;;13.88;100.00;99201.59;5108735;28;20064;-80
2022/09/11 19:59:17;;;;;;;7.63;5.07;;;;;;;14.02;100.00;99208.81;5110127;27;20100;-79
2022/09/11 20:01:43;;;;;;;9.45;4.72;;;;;;;14.05;100.00;99204.81;5102947;27;20079;-79
2022/09/11 20:04:12;;;;;;;10.13;7.05;;;;;;;14.05;100.00;99207.56;5103123;27;20113;-79
2022/09/11 20:06:39;;;;;;;7.95;5.70;;;;;;;14.02;100.00;99197.88;5105230;28;20047;-79
2022/09/11 20:09:07;;;;;;;5.72;4.72;;;;;;;14.06;100.00;99193.69;5112331;28;20122;-79
2022/09/11 20:11:34;;;;;;;6.63;4.40;;;;;;;13.91;100.00;99195.72;5103771;28;20047;-79
2022/09/11 20:14:00;;;;;;;5.70;4.50;;;;;;;13.69;100.00;99184.94;5106051;28;20471;-79
2022/09/11 20:16:28;;;;;;;5.93;4.45;;;;;;;13.66;100.00;99188.09;5110849;27;20307;-80
2022/09/11 20:18:55;;;;;;;5.22;4.45;;;;;;;13.68;100.00;99194.19;5100862;27;20048;-79
2022/09/11 20:21:22;;;;;;;6.05;4.50;;;;;;;13.55;100.00;99202.31;5110013;28;20599;-79
2022/09/11 20:23:52;;;;;;;6.35;4.68;;;;;;;13.46;100.00;99193.47;5108387;27;20043;-79
2022/09/11 20:26:22;;;;;;;5.30;4.80;;;;;;;13.48;100.00;99202.28;5102640;28;20087;-79
2022/09/11 20:28:53;;;;;;;6.78;5.07;;;;;;;13.56;100.00;99204.00;5107663;27;20100;-79
2022/09/11 20:31:22;;;;;;;6.10;4.45;;;;;;;13.53;100.00;99201.69;5107844;28;20260;-79
2022/09/11 20:33:49;;;;;;;7.40;4.78;;;;;;;13.54;100.00;99206.09;5101601;28;20495;-79
2022/09/11 20:36:17;;;;;;;8.50;5.10;;;;;;;13.58;100.00;99210.97;5108968;27;20100;-79
2022/09/11 20:38:43;;;;;;;6.95;5.45;;;;;;;13.39;100.00;99192.59;5109118;27;20043;-80
2022/09/11 20:41:12;;;;;;;7.68;5.28;;;;;;;13.41;100.00;99209.59;5109675;27;20156;-80
2022/09/11 20:43:41;;;;;;;7.93;5.10;;;;;;;13.38;100.00;99205.41;5105709;28;20562;-80
2022/09/11 20:46:08;;;;;;;7.22;5.30;;;;;;;13.32;100.00;99200.69;5103622;28;20048;-80
2022/09/11 20:48:35;;;;;;;6.05;4.72;;;;;;;13.44;100.00;99206.47;5102426;27;20052;-80
2022/09/11 20:51:03;;;;;;;9.88;5.20;;;;;;;13.45;100.00;99200.81;5109831;27;20059;-80
2022/09/11 20:53:29;;;;;;;5.88;4.60;;;;;;;13.31;100.00;99198.16;5109714;27;20081;-80
2022/09/11 20:56:00;;;;;;;7.82;4.82;;;;;;;13.32;100.00;99211.63;5109616;28;20096;-78
2022/09/11 20:58:26;;;;;;;7.00;4.88;;;;;;;13.23;100.00;99201.91;5104774;28;20055;-80
2022/09/11 21:00:54;;;;;;;6.43;4.65;;;;;;;13.21;100.00;99201.28;5110783;27;20482;-79
2022/09/11 21:03:21;;;;;;;11.52;4.60;;;;;;;13.15;100.00;99199.38;5096809;28;20048;-79
2022/09/11 21:05:47;;;;;;;6.80;5.05;;;;;;;13.08;100.00;99202.03;5106943;27;20130;-79
2022/09/11 21:08:13;;;;;;;5.32;4.35;;;;;;;13.05;100.00;99196.97;5102070;28;20490;-79
2022/09/11 21:10:40;;;;;;;6.43;4.97;;;;;;;13.00;100.00;99197.56;5107867;28;20051;-79
2022/09/11 21:13:09;;;;;;;11.77;5.15;;;;;;;13.00;100.00;99196.75;5110042;28;20464;-79
2022/09/11 21:15:41;;;;;;;6.30;4.80;;;;;;;12.80;100.00;99193.88;5109204;28;20529;-79
2022/09/11 21:18:09;;;;;;;6.68;4.32;;;;;;;12.77;100.00;99199.72;5100229;28;20039;-79
2022/09/11 21:20:35;;;;;;;8.02;4.38;;;;;;;12.92;100.00;99197.75;5109471;28;20058;-79
2022/09/11 21:23:02;;;;;;;6.65;4.90;;;;;;;12.92;100.00;99197.75;5108398;28;20051;-79
2022/09/11 21:25:28;;;;;;;7.38;4.60;;;;;;;12.79;100.00;99201.22;5097411;28;20044;-80
2022/09/11 21:27:55;;;;;;;6.30;4.80;;;;;;;12.57;100.00;99198.53;5100533;27;20399;-79
2022/09/11 21:30:21;;;;;;;7.82;4.72;;;;;;;12.51;100.00;99193.88;5109772;28;20100;-79
2022/09/11 21:32:48;;;;;;;6.13;4.47;;;;;;;12.53;100.00;99201.84;5100575;28;20120;-79
2022/09/11 21:35:16;;;;;;;7.65;4.20;;;;;;;12.55;100.00;99199.75;5108204;27;20096;-79
2022/09/11 21:37:42;;;;;;;5.28;4.15;;;;;;;12.47;100.00;99191.72;5107493;27;20052;-79
2022/09/11 21:40:10;;;;;;;6.70;5.25;;;;;;;12.51;100.00;99201.19;5110419;28;20054;-79
2022/09/11 21:42:36;;;;;;;6.22;4.97;;;;;;;12.51;100.00;99196.59;5107511;28;20418;-79
2022/09/11 21:45:03;;;;;;;5.88;4.80;;;;;;;12.60;100.00;99194.56;5109598;28;20377;-79
2022/09/11 21:47:29;;;;;;;9.40;4.55;;;;;;;12.66;100.00;99201.09;5108270;28;20406;-79
2022/09/11 21:49:56;;;;;;;6.25;4.60;;;;;;;12.57;100.00;99195.81;5104490;28;20117;-79
2022/09/11 21:52:24;;;;;;;6.32;4.18;;;;;;;12.43;100.00;99199.44;5101769;28;20079;-79
2022/09/11 21:54:53;;;;;;;9.65;4.75;;;;;;;12.25;100.00;99201.81;5107432;27;20039;-79
2022/09/11 21:57:20;;;;;;;7.03;4.78;;;;;;;12.27;100.00;99206.03;5109716;27;20142;-79
2022/09/11 21:59:47;;;;;;;6.47;5.10;;;;;;;12.21;100.00;99191.28;5107615;28;20452;-79
2022/09/11 22:02:16;;;;;;;7.82;5.05;;;;;;;12.28;100.00;99204.97;5109686;28;20218;-79
2022/09/11 22:04:43;;;;;;;7.63;5.53;;;;;;;12.19;100.00;99192.50;5105093;27;20049;-78
2022/09/11 22:07:16;;;;;;;8.63;5.00;;;;;;;12.17;100.00;99202.78;5092429;28;20048;-79
2022/09/11 22:09:44;;;;;;;7.93;4.90;;;;;;;12.11;100.00;99198.94;5109118;28;20044;-78
2022/09/11 22:12:10;;;;;;;13.00;6.93;;;;;;;12.09;100.00;99197.44;5107171;28;20517;-79
2022/09/11 22:14:37;;;;;;;15.02;5.00;;;;;;;11.96;100.00;99190.81;5109306;28;20043;-79
2022/09/11 22:17:04;;;;;;;8.73;4.90;;;;;;;12.10;100.00;99193.69;5105702;28;20418;-79
2022/09/11 22:19:30;;;;;;;8.95;4.78;;;;;;;11.95;100.00;99191.00;5105975;28;20051;-79
2022/09/11 22:21:57;;;;;;;5.30;4.80;;;;;;;11.96;100.00;99196.25;5101459;28;20054;-79
2022/09/11 22:24:23;;;;;;;8.85;5.22;;;;;;;11.89;100.00;99181.69;5088552;28;20089;-79
2022/09/11 22:26:51;;;;;;;6.35;4.22;;;;;;;11.94;100.00;99190.19;5103901;27;20474;-78
2022/09/11 22:29:17;;;;;;;8.63;4.63;;;;;;;12.11;100.00;99188.03;5107486;28;20079;-79
2022/09/11 22:31:44;;;;;;;5.15;4.47;;;;;;;12.05;100.00;99191.53;5104563;28;20470;-79
2022/09/11 22:34:10;;;;;;;6.97;4.90;;;;;;;12.01;100.00;99182.94;5106000;28;20047;-78
2022/09/11 22:36:37;;;;;;;7.65;5.03;;;;;;;11.95;100.00;99180.13;5095389;28;20047;-78
2022/09/11 22:39:04;;;;;;;5.57;4.55;;;;;;;11.99;100.00;99181.44;5099730;28;20487;-78
2022/09/11 22:41:30;;;;;;;9.95;4.95;;;;;;;11.94;100.00;99187.47;5100952;28;20055;-78
2022/09/11 22:43:58;;;;;;;10.43;5.80;;;;;;;11.91;100.00;99193.25;5092302;28;20550;-78
2022/09/11 22:46:26;;;;;;;6.00;4.57;;;;;;;12.11;100.00;99188.03;5101569;28;20051;-78
2022/09/11 22:48:53;;;;;;;6.75;3.95;;;;;;;11.94;100.00;99172.97;5097458;28;20123;-78
2022/09/11 22:51:19;;;;;;;6.47;4.55;;;;;;;12.00;100.00;99183.13;5098747;28;20101;-78
2022/09/11 22:53:46;;;;;;;6.30;4.93;;;;;;;11.96;100.00;99182.66;5104419;28;20051;-78
2022/09/11 22:56:13;;;;;;;6.32;4.88;;;;;;;11.79;100.00;99173.00;5101074;28;20043;-78
2022/09/11 22:58:40;;;;;;;6.85;5.07;;;;;;;11.63;100.00;99177.63;5100080;28;20632;-78
2022/09/11 23:01:09;;;;;;;6.10;4.68;;;;;;;11.54;100.00;99167.06;5101961;28;20101;-78
2022/09/11 23:03:36;;;;;;;5.78;5.07;;;;;;;11.47;100.00;99173.28;5094922;28;20077;-79
2022/09/11 23:08:48;;;;;;;6.82;5.20;;;;;;;11.51;100.00;99179.16;5107398;27;20062;-79
2022/09/11 23:11:18;;;;;;;6.85;5.38;;;;;;;11.57;100.00;99172.13;5098105;28;20044;-79
2022/09/11 23:13:47;;;;;;;8.70;5.10;;;;;;;11.63;100.00;99176.81;5102913;28;20055;-78